Time;durP1;ratioP1;P1;durP2;ratioP2;P2;SDS_P1;SDS_P2;PMS_P1;PMS_P2;Temp;Humidity;BMP_temperature;BMP_pressure;BME280_temperature;BME280_humidity;BME280_pressure;Samples;Min_cycle;Max_cycle;Signal;HPM_P1;HPM_P2
2022/03/10 00:05:02;;;;;;;;;;;;;;;;;;;;;
2022/03/10 00:07:55;;;;;;;16.50;6.90;;;;;;;-0.24;49.39;93180.22;5018617;28;20037;-90
2022/03/10 00:10:45;;;;;;;15.15;6.78;;;;;;;-0.45;49.02;93152.94;4986868;28;20089;-89
2022/03/10 00:13:46;;;;;;;;;;;;;;;;;;;;;
2022/03/10 00:16:43;;;;;;;;;;;;;;;;;;;;;
2022/03/10 00:20:03;;;;;;;21.33;7.78;;;;;;;-0.55;48.70;93127.66;5018919;28;20423;-89
2022/03/10 00:23:25;;;;;;;16.70;8.02;;;;;;;-0.59;48.97;93128.25;5000931;28;20073;-88
2022/03/10 00:26:51;;;;;;;19.73;7.78;;;;;;;-0.11;48.69;93211.06;4996264;28;20045;-89
2022/03/10 00:29:48;;;;;;;17.45;7.30;;;;;;;-0.26;49.13;93189.91;5023371;28;20046;-89
2022/03/10 00:33:03;;;;;;;17.38;7.70;;;;;;;-0.47;49.21;93160.09;5019398;28;20045;-89
2022/03/10 00:36:52;;;;;;;19.00;7.97;;;;;;;-0.61;49.42;93140.53;5022753;28;20035;-89
2022/03/10 00:39:51;;;;;;;15.48;7.13;;;;;;;-0.54;48.83;93149.00;5034081;28;20390;-90
2022/03/10 00:43:03;;;;;;;19.17;7.90;;;;;;;-0.45;49.02;93163.22;4989292;28;20049;-89
2022/03/10 00:46:04;;;;;;;15.07;7.50;;;;;;;-0.44;49.12;93159.69;5002521;28;20042;-89
2022/03/10 00:52:21;;;;;;;17.13;8.25;;;;;;;-0.29;49.03;93188.53;4991981;28;20042;-89
2022/03/10 00:58:20;;;;;;;19.65;8.05;;;;;;;-0.33;49.35;93187.34;5034183;28;20049;-89
2022/03/10 01:01:06;;;;;;;18.08;8.32;;;;;;;-0.57;49.87;93152.78;5037421;28;20440;-88
2022/03/10 01:04:18;;;;;;;17.33;8.23;;;;;;;-0.61;49.94;93153.38;5021066;28;20513;-89
2022/03/10 01:07:02;;;;;;;;;;;;;;;;;;;;;
2022/03/10 01:09:55;;;;;;;;;;;;;;;;;;;;;
2022/03/10 01:12:41;;;;;;;;;;;;;;;;;;;;;
2022/03/10 01:15:30;;;;;;;;;;;;;;;;;;;;;
2022/03/10 01:19:16;;;;;;;17.35;8.20;;;;;;;-0.54;50.86;93172.16;5013810;28;20096;-89
2022/03/10 01:22:11;;;;;;;;;;;;;;;;;;;;;
2022/03/10 01:28:37;;;;;;;16.00;8.32;;;;;;;-0.76;50.56;93151.03;4983202;28;20038;-89
2022/03/10 01:31:39;;;;;;;16.77;7.68;;;;;;;-0.87;50.79;93140.38;4991027;28;20049;-89
2022/03/10 01:34:28;;;;;;;16.88;7.32;;;;;;;-0.66;50.44;93166.84;4989102;28;20596;-89
2022/03/10 01:37:37;;;;;;;20.73;7.95;;;;;;;-0.65;50.59;93178.72;5013714;28;20041;-89
2022/03/10 01:40:50;;;;;;;16.42;7.57;;;;;;;-0.92;50.80;93136.84;5037956;28;20029;-89
2022/03/10 01:44:02;;;;;;;;;;;;;;;;;;;;;
2022/03/10 01:47:31;;;;;;;;;;;;;;;;;;;;;
2022/03/10 01:50:34;;;;;;;17.58;7.72;;;;;;;-0.98;50.56;93130.69;5004116;28;20042;-89
2022/03/10 01:53:10;;;;;;;19.77;7.53;;;;;;;-0.92;50.30;93142.75;4982460;28;20599;-89
2022/03/10 01:55:57;;;;;;;16.08;7.43;;;;;;;-0.71;50.79;93176.94;5003110;28;20064;-88
2022/03/10 01:58:52;;;;;;;;;;;;;;;;;;;;;
2022/03/10 02:02:08;;;;;;;;;;;;;;;;;;;;;
2022/03/10 02:10:56;;;;;;;;;;;;;;;;;;;;;
2022/03/10 02:13:56;;;;;;;20.75;7.70;;;;;;;-1.12;51.25;93127.34;5014536;28;20037;-88
2022/03/10 02:19:54;;;;;;;;;;;;;;;;;;;;;
2022/03/10 02:23:29;;;;;;;;;;;;;;;;;;;;;
2022/03/10 02:26:42;;;;;;;;;;;;;;;;;;;;;
2022/03/10 02:29:24;;;;;;;19.38;7.75;;;;;;;-0.95;51.23;93183.47;5015271;28;20088;-89
2022/03/10 02:32:12;;;;;;;;;;;;;;;;;;;;;
2022/03/10 02:35:11;;;;;;;;;;;;;;;;;;;;;
2022/03/10 02:37:52;;;;;;;20.20;8.95;;;;;;;-1.08;51.58;93163.69;5013581;28;20034;-89
2022/03/10 02:40:39;;;;;;;18.13;7.80;;;;;;;-1.23;51.60;93137.44;4985690;28;20049;-89
2022/03/10 02:43:41;;;;;;;18.73;8.70;;;;;;;-0.81;51.90;93202.25;4981928;28;20096;-89
2022/03/10 02:50:09;;;;;;;;;;;;;;;;;;;;;
2022/03/10 02:52:55;;;;;;;;;;;;;;;;;;;;;
2022/03/10 02:55:55;;;;;;;17.38;8.15;;;;;;;-1.40;52.74;93132.69;5013808;28;20042;-89
2022/03/10 02:58:38;;;;;;;16.83;7.60;;;;;;;-1.34;52.64;93151.66;5014796;28;20481;-89
2022/03/10 03:05:15;;;;;;;;;;;;;;;;;;;;;
2022/03/10 03:11:55;;;;;;;14.45;6.47;;;;;;;-1.47;52.71;93145.50;5026404;28;20046;-89
2022/03/10 03:14:59;;;;;;;;;;;;;;;;;;;;;
2022/03/10 03:17:59;;;;;;;20.80;8.43;;;;;;;-1.03;53.06;93215.31;5014011;28;20034;-89
2022/03/10 03:20:35;;;;;;;18.98;7.97;;;;;;;-1.43;53.07;93152.84;4984993;28;20057;-89
2022/03/10 03:23:39;;;;;;;;;;;;;;;;;;;;;
2022/03/10 03:30:29;;;;;;;;;;;;;;;;;;;;;
2022/03/10 03:33:33;;;;;;;23.08;10.35;;;;;;;-1.49;53.97;93146.69;4995880;28;20498;-89
2022/03/10 03:36:16;;;;;;;;;;;;;;;;;;;;;
2022/03/10 03:42:42;;;;;;;;;;;;;;;;;;;;;
2022/03/10 03:46:09;;;;;;;;;;;;;;;;;;;;;
2022/03/10 03:49:05;;;;;;;21.75;9.85;;;;;;;-1.16;53.67;93198.09;5031559;28;20052;-88
2022/03/10 03:51:41;;;;;;;20.50;9.55;;;;;;;-1.45;53.51;93153.03;4985415;28;20061;-88
2022/03/10 03:54:45;;;;;;;22.48;9.98;;;;;;;-1.39;54.22;93165.09;5018333;28;20030;-88
2022/03/10 04:01:11;;;;;;;19.27;9.13;;;;;;;-1.37;54.14;93182.88;4983401;28;20042;-88
2022/03/10 04:04:21;;;;;;;;;;;;;;;;;;;;;
2022/03/10 04:07:47;;;;;;;23.83;10.60;;;;;;;-1.38;54.78;93189.78;5003309;28;20061;-89
2022/03/10 04:10:54;;;;;;;;;;;;;;;;;;;;;
2022/03/10 04:14:19;;;;;;;23.25;10.10;;;;;;;-1.37;54.86;93190.59;4991573;28;20133;-92
2022/03/10 04:17:09;;;;;;;;;;;;;;;;;;;;;
2022/03/10 04:20:08;;;;;;;;;;;;;;;;;;;;;
2022/03/10 04:26:42;;;;;;;26.88;8.85;;;;;;;-1.48;54.41;93174.75;4995286;28;20064;-89
2022/03/10 04:33:01;;;;;;;25.05;9.88;;;;;;;-1.25;54.96;93224.97;5015161;28;20088;-89
2022/03/10 04:35:41;;;;;;;27.80;10.02;;;;;;;-1.41;55.51;93208.16;4983579;28;20132;-91
2022/03/10 04:38:17;;;;;;;25.27;10.05;;;;;;;-1.72;54.94;93157.34;4966473;28;20096;-88
2022/03/10 04:41:24;;;;;;;;;;;;;;;;;;;;;
2022/03/10 04:44:18;;;;;;;18.85;10.02;;;;;;;-1.76;54.76;93151.00;5011742;28;20046;-89
2022/03/10 04:47:35;;;;;;;;;;;;;;;;;;;;;
2022/03/10 04:50:38;;;;;;;20.92;9.73;;;;;;;-1.80;55.12;93142.09;5006083;28;20389;-89
2022/03/10 04:57:00;;;;;;;23.45;9.77;;;;;;;-1.77;55.57;93149.44;4996114;28;20034;-89
2022/03/10 05:00:22;;;;;;;30.80;10.77;;;;;;;-1.36;55.52;93216.06;4965601;28;20061;-90
2022/03/10 05:03:13;;;;;;;22.73;9.90;;;;;;;-1.74;55.27;93143.91;5005159;28;20095;-88
2022/03/10 05:11:40;;;;;;;24.67;9.75;;;;;;;-1.88;56.26;93143.88;5019579;28;20049;-90
2022/03/10 05:14:47;;;;;;;;;;;;;;;;;;;;;
2022/03/10 05:17:28;;;;;;;;;;;;;;;;;;;;;
2022/03/10 05:20:28;;;;;;;23.13;10.73;;;;;;;-1.61;55.74;93185.00;5040070;28;20128;-90
2022/03/10 05:23:21;;;;;;;;;;;;;;;;;;;;;
2022/03/10 05:25:52;;;;;;;19.42;9.15;;;;;;;-1.86;56.00;93156.50;5017149;28;20132;-88
2022/03/10 05:28:36;;;;;;;25.48;9.93;;;;;;;-1.70;55.72;93175.91;5007342;28;20048;-90
2022/03/10 05:31:22;;;;;;;22.58;10.20;;;;;;;-1.58;55.93;93197.44;5000246;28;20041;-89
2022/03/10 05:34:24;;;;;;;;;;;;;;;;;;;;;
2022/03/10 05:37:10;;;;;;;22.67;10.43;;;;;;;-1.84;56.43;93158.91;5005170;28;20483;-85
2022/03/10 05:39:39;;;;;;;26.20;11.55;;;;;;;-1.76;56.54;93166.41;5016479;28;20128;-85
2022/03/10 05:42:10;;;;;;;23.08;10.35;;;;;;;-1.71;55.83;93176.91;4994362;28;20487;-86
2022/03/10 05:45:12;;;;;;;24.20;10.57;;;;;;;-1.54;56.22;93201.22;5029425;28;20035;-86
2022/03/10 05:48:01;;;;;;;24.75;10.60;;;;;;;-1.82;56.05;93155.16;4997594;28;20057;-86
2022/03/10 05:50:32;;;;;;;27.92;11.18;;;;;;;-1.77;55.96;93159.69;5001130;28;20048;-85
2022/03/10 05:53:00;;;;;;;;;;;;;;;-1.33;56.07;93222.59;5017220;28;20084;-86
2022/03/10 05:55:26;;;;;;;21.38;10.35;;;;;;;-1.66;56.74;93177.09;5016752;28;19913;-85
2022/03/10 05:57:56;;;;;;;24.27;11.02;;;;;;;-1.85;56.00;93154.72;5015930;28;20041;-85
2022/03/10 06:00:27;;;;;;;19.92;10.30;;;;;;;-1.65;56.14;93167.63;4980810;28;20068;-85
2022/03/10 06:03:00;;;;;;;25.00;11.23;;;;;;;-0.51;53.57;93185.41;5000195;28;20040;-86
2022/03/10 06:05:29;;;;;;;22.45;10.70;;;;;;;0.67;50.43;93176.59;4996481;28;20077;-86
2022/03/10 06:08:10;;;;;;;22.70;10.60;;;;;;;2.32;47.32;93236.44;5014975;28;20045;-85
2022/03/10 06:11:04;;;;;;;;;;;;;;;;;;;;;
2022/03/10 06:13:40;;;;;;;23.08;10.80;;;;;;;4.37;42.37;93209.16;5031127;28;20528;-86
2022/03/10 06:16:21;;;;;;;27.73;11.45;;;;;;;5.25;40.51;93177.75;5003611;28;20052;-85
2022/03/10 06:19:13;;;;;;;;;;;;;;;;;;;;;
2022/03/10 06:22:04;;;;;;;27.00;11.65;;;;;;;7.09;36.52;93169.59;5005491;28;20044;-85
2022/03/10 06:24:37;;;;;;;27.30;12.27;;;;;;;8.10;33.86;93173.13;4980032;28;20463;-86
2022/03/10 06:27:37;;;;;;;31.55;13.63;;;;;;;9.19;32.96;93209.00;4986764;28;20052;-86
2022/03/10 06:30:13;;;;;;;27.55;12.40;;;;;;;10.02;31.58;93189.66;5028434;28;20403;-86
2022/03/10 06:36:05;;;;;;;28.38;12.40;;;;;;;11.72;28.52;93168.59;5003432;28;20077;-87
2022/03/10 06:38:42;;;;;;;;;;;;;;;;;;;;;
2022/03/10 06:41:30;;;;;;;23.75;12.55;;;;;;;13.76;25.32;93220.53;5032015;28;20041;-88
2022/03/10 06:44:21;;;;;;;25.27;12.60;;;;;;;14.00;24.59;93182.78;4995774;28;20112;-87
2022/03/10 06:47:15;;;;;;;28.70;12.18;;;;;;;14.99;23.05;93190.16;5002324;28;20073;-88
2022/03/10 06:49:46;;;;;;;25.15;12.18;;;;;;;15.93;21.89;93171.94;5033210;28;20130;-87
2022/03/10 06:52:22;;;;;;;26.97;12.83;;;;;;;16.76;21.19;93205.69;5015376;28;20072;-87
2022/03/10 06:55:08;;;;;;;23.35;12.55;;;;;;;17.49;20.54;93184.03;5002680;28;20049;-87
2022/03/10 06:57:47;;;;;;;25.98;13.23;;;;;;;18.38;19.49;93168.50;4999936;28;20128;-86
2022/03/10 07:00:15;;;;;;;23.58;12.70;;;;;;;19.11;18.97;93197.47;4999432;28;20064;-87
2022/03/10 07:02:54;;;;;;;24.75;12.55;;;;;;;19.80;18.40;93215.94;5016200;28;20022;-86
2022/03/10 07:05:24;;;;;;;24.25;12.70;;;;;;;20.09;17.74;93169.88;4997958;28;20127;-87
2022/03/10 07:08:22;;;;;;;24.52;13.15;;;;;;;20.80;17.26;93190.03;5031716;28;20129;-87
2022/03/10 07:11:20;;;;;;;23.23;11.98;;;;;;;20.87;15.90;93174.28;5031155;28;20416;-87
2022/03/10 07:14:02;;;;;;;;;;;;;;;;;;;;;
2022/03/10 07:17:02;;;;;;;;;;;;;;;;;;;;;
2022/03/10 07:19:46;;;;;;;19.75;10.25;;;;;;;20.58;15.89;93165.44;5013942;28;20066;-88
2022/03/10 07:22:42;;;;;;;17.27;9.80;;;;;;;21.79;14.96;93170.13;4981224;28;20045;-87
2022/03/10 07:25:21;;;;;;;14.43;8.15;;;;;;;21.45;14.79;93178.69;4994908;28;20069;-87
2022/03/10 07:28:09;;;;;;;;;;;;;;;;;;;;;
2022/03/10 07:30:40;;;;;;;15.52;8.90;;;;;;;21.69;13.97;93185.84;5016232;28;20585;-89
2022/03/10 07:33:29;;;;;;;15.27;8.40;;;;;;;20.42;15.07;93191.09;5015063;28;20578;-87
2022/03/10 07:36:26;;;;;;;18.33;8.80;;;;;;;21.78;14.73;93219.22;5016405;28;20497;-87
2022/03/10 07:39:07;;;;;;;15.38;8.80;;;;;;;21.61;14.64;93187.53;4996978;28;20044;-87
2022/03/10 07:41:45;;;;;;;;;;;;;;;;;;;;;
2022/03/10 07:44:35;;;;;;;;;;;;;;;;;;;;;
2022/03/10 07:47:11;;;;;;;15.82;8.68;;;;;;;13.43;23.55;93181.03;5013779;28;20121;-87
2022/03/10 07:49:45;;;;;;;26.65;9.77;;;;;;;13.30;24.06;93172.03;5013999;28;20132;-86
2022/03/10 07:52:15;;;;;;;19.73;9.10;;;;;;;12.22;25.02;93217.19;5013630;28;20033;-88
2022/03/10 07:54:48;;;;;;;22.38;9.60;;;;;;;9.96;28.45;93164.53;4998489;28;20104;-87
2022/03/10 07:57:19;;;;;;;23.13;9.50;;;;;;;9.05;29.61;93176.59;5013911;28;20065;-87
2022/03/10 08:00:04;;;;;;;16.63;8.55;;;;;;;9.88;28.93;93217.38;4997231;28;20063;-87
2022/03/10 08:05:31;;;;;;;19.60;7.85;;;;;;;9.36;29.03;93229.66;5013782;28;20052;-87
2022/03/10 08:08:01;;;;;;;15.82;7.90;;;;;;;10.01;28.28;93240.38;5014201;28;20037;-87
2022/03/10 08:10:29;;;;;;;17.08;7.57;;;;;;;10.25;27.44;93224.91;5031253;28;20028;-88
2022/03/10 08:13:09;;;;;;;15.20;7.45;;;;;;;10.17;27.61;93239.28;4982673;28;20037;-88
2022/03/10 08:15:40;;;;;;;16.35;7.93;;;;;;;10.06;27.97;93240.38;4993401;28;20022;-87
2022/03/10 08:18:11;;;;;;;15.57;8.73;;;;;;;7.99;31.45;93207.22;5009490;28;20072;-87
2022/03/10 08:20:44;;;;;;;17.50;7.35;;;;;;;8.20;31.24;93174.25;4978010;28;20046;-87
2022/03/10 08:23:17;;;;;;;17.75;7.88;;;;;;;8.11;29.93;93179.94;4977854;28;20033;-87
2022/03/10 08:25:47;;;;;;;15.48;7.78;;;;;;;8.29;30.40;93204.00;4994274;28;20038;-87
2022/03/10 08:28:18;;;;;;;16.08;7.45;;;;;;;7.89;32.25;93213.16;4978339;28;20044;-87
2022/03/10 08:30:51;;;;;;;22.55;7.85;;;;;;;7.79;32.30;93177.41;5011348;28;20034;-86
2022/03/10 08:33:22;;;;;;;15.05;7.75;;;;;;;7.66;31.47;93191.66;4977406;28;20467;-87
2022/03/10 08:36:11;;;;;;;17.60;8.20;;;;;;;7.89;31.47;93172.25;4997254;28;20358;-86
2022/03/10 08:38:37;;;;;;;17.25;8.40;;;;;;;8.76;29.92;93174.47;4998324;28;20045;-88
2022/03/10 08:41:13;;;;;;;16.83;8.70;;;;;;;9.11;28.84;93212.13;4998772;28;20014;-85
2022/03/10 08:43:40;;;;;;;17.85;8.13;;;;;;;8.83;30.21;93222.00;5014928;28;20125;-87
2022/03/10 08:46:06;;;;;;;17.17;9.57;;;;;;;9.08;29.08;93239.53;4997198;28;20044;-86
2022/03/10 08:48:34;;;;;;;16.70;8.52;;;;;;;8.99;29.26;93240.31;4983623;28;20053;-86
2022/03/10 08:51:00;;;;;;;16.88;9.27;;;;;;;9.32;29.26;93239.06;5001785;28;20056;-86
2022/03/10 08:53:26;;;;;;;18.38;7.72;;;;;;;8.77;30.40;93222.22;5018340;28;20124;-86
2022/03/10 08:55:55;;;;;;;15.10;7.38;;;;;;;8.99;29.84;93232.47;5001933;28;20059;-85
2022/03/10 08:58:20;;;;;;;17.75;8.55;;;;;;;9.21;30.18;93243.50;5001141;28;20479;-86
2022/03/10 09:00:46;;;;;;;17.42;8.48;;;;;;;9.80;28.66;93240.41;5001364;28;20080;-87
2022/03/10 09:03:11;;;;;;;16.25;8.75;;;;;;;9.31;29.51;93245.34;4984708;28;20043;-86
2022/03/10 09:05:37;;;;;;;14.93;8.13;;;;;;;9.05;30.96;93234.84;5017776;28;20502;-87
2022/03/10 09:08:04;;;;;;;21.45;8.93;;;;;;;8.47;31.67;93187.94;5000854;28;20042;-88
2022/03/10 09:10:30;;;;;;;17.35;8.60;;;;;;;9.16;30.14;93244.28;5017470;28;20037;-86
2022/03/10 09:12:56;;;;;;;17.98;9.15;;;;;;;8.74;30.78;93239.19;5035148;28;20053;-85
2022/03/10 09:15:22;;;;;;;17.90;9.02;;;;;;;9.07;31.28;93239.78;5017308;28;20051;-86
2022/03/10 09:17:48;;;;;;;19.40;8.85;;;;;;;9.09;30.19;93241.09;5017514;28;20034;-87
2022/03/10 09:20:13;;;;;;;17.98;9.27;;;;;;;9.20;29.73;93249.75;5017164;28;20045;-85
2022/03/10 09:22:42;;;;;;;18.30;9.45;;;;;;;9.48;30.05;93234.63;5001027;28;20042;-85
2022/03/10 09:25:09;;;;;;;23.17;10.40;;;;;;;8.88;31.69;93214.16;5017269;28;20037;-87
2022/03/10 09:27:40;;;;;;;21.92;10.32;;;;;;;8.95;31.98;93243.41;5035221;28;20041;-86
2022/03/10 09:30:08;;;;;;;19.58;10.10;;;;;;;9.00;31.69;93250.47;5016968;28;20042;-86
2022/03/10 09:32:42;;;;;;;19.42;9.80;;;;;;;9.03;31.57;93226.47;5035180;28;20043;-86
2022/03/10 09:35:10;;;;;;;21.42;10.20;;;;;;;9.00;31.34;93226.97;5001618;28;20108;-86
2022/03/10 09:37:35;;;;;;;20.00;10.55;;;;;;;9.37;32.30;93237.25;5000407;28;20120;-86
2022/03/10 09:40:02;;;;;;;24.35;10.82;;;;;;;9.41;33.00;93221.03;5017520;28;20168;-88
2022/03/10 09:42:30;;;;;;;19.65;10.48;;;;;;;9.49;33.44;93226.53;5000716;28;20029;-85
2022/03/10 09:44:58;;;;;;;21.65;10.95;;;;;;;8.58;33.80;93229.72;5000758;28;20048;-85
2022/03/10 09:47:26;;;;;;;19.42;10.52;;;;;;;9.14;32.52;93235.09;5016498;28;20045;-85
2022/03/10 09:49:52;;;;;;;21.13;10.55;;;;;;;8.96;31.67;93234.56;5017368;28;20140;-85
2022/03/10 09:52:19;;;;;;;15.30;8.30;;;;;;;8.51;32.74;93219.50;5034978;28;20037;-85
2022/03/10 09:54:45;;;;;;;21.13;11.18;;;;;;;8.37;33.46;93234.81;5001005;28;20038;-86
2022/03/10 09:57:14;;;;;;;22.20;10.52;;;;;;;8.55;33.49;93221.34;5017423;28;20025;-86
2022/03/10 09:59:50;;;;;;;17.17;7.50;;;;;;;8.94;32.75;93230.66;5017385;28;20083;-85
2022/03/10 10:02:16;;;;;;;22.10;10.50;;;;;;;9.71;32.54;93241.97;5001010;28;20037;-85
2022/03/10 10:04:43;;;;;;;21.08;10.07;;;;;;;8.36;33.94;93233.25;5016608;28;20049;-86
2022/03/10 10:07:10;;;;;;;22.92;10.57;;;;;;;9.27;33.20;93231.22;5000138;28;20136;-85
2022/03/10 10:09:40;;;;;;;25.25;11.30;;;;;;;8.87;33.62;93238.72;5016611;28;20125;-86
2022/03/10 10:12:07;;;;;;;23.50;11.20;;;;;;;9.07;33.49;93234.56;5016096;28;20052;-86
2022/03/10 10:14:38;;;;;;;22.88;11.23;;;;;;;9.04;34.02;93232.47;5034088;28;20041;-86
2022/03/10 10:17:04;;;;;;;22.55;11.00;;;;;;;9.37;32.97;93226.03;5015479;28;20046;-87
2022/03/10 10:19:35;;;;;;;23.38;12.13;;;;;;;9.05;33.08;93224.41;5015744;28;20107;-85
2022/03/10 10:22:09;;;;;;;25.92;11.63;;;;;;;8.91;33.74;93244.19;5015888;28;20033;-86
2022/03/10 10:24:36;;;;;;;24.00;11.30;;;;;;;9.08;33.08;93234.31;5033343;28;20081;-86
2022/03/10 10:27:15;;;;;;;23.30;11.00;;;;;;;9.99;33.06;93230.16;4999144;28;20045;-85
2022/03/10 10:29:59;;;;;;;24.05;11.52;;;;;;;9.83;32.10;93217.38;5033224;28;20045;-86
2022/03/10 10:32:32;;;;;;;29.33;11.55;;;;;;;9.66;32.30;93235.94;5033561;28;20108;-85
2022/03/10 10:35:00;;;;;;;28.15;12.85;;;;;;;9.82;31.78;93219.22;5034423;28;20041;-86
2022/03/10 10:37:25;;;;;;;22.38;11.50;;;;;;;9.61;32.00;93218.44;5033841;28;20033;-87
2022/03/10 10:39:53;;;;;;;22.27;10.98;;;;;;;9.82;30.97;93226.25;5034330;28;20128;-85
2022/03/10 10:42:19;;;;;;;26.85;13.20;;;;;;;9.25;32.29;93228.84;5016096;28;20045;-85
2022/03/10 10:44:44;;;;;;;27.73;12.95;;;;;;;9.35;32.67;93228.88;5016558;28;20033;-85
2022/03/10 10:47:10;;;;;;;28.98;13.10;;;;;;;9.58;32.31;93221.56;4999518;28;20045;-85
2022/03/10 10:49:36;;;;;;;22.33;12.40;;;;;;;9.91;31.16;93219.47;4994978;28;20463;-86
2022/03/10 10:52:01;;;;;;;25.17;13.20;;;;;;;9.95;31.14;93230.97;4996576;28;20050;-86
2022/03/10 10:54:29;;;;;;;27.30;14.13;;;;;;;9.88;31.84;93212.91;4996114;28;20056;-86
2022/03/10 10:57:01;;;;;;;29.67;12.63;;;;;;;9.89;32.06;93227.56;4996145;28;20133;-86
2022/03/10 10:59:27;;;;;;;25.88;12.23;;;;;;;10.26;32.07;93217.84;4996269;28;20037;-85
2022/03/10 11:02:05;;;;;;;29.35;13.57;;;;;;;10.32;31.13;93208.97;5013969;28;20026;-85
2022/03/10 11:04:31;;;;;;;25.08;12.73;;;;;;;9.57;31.66;93209.56;5012513;28;20058;-87
2022/03/10 11:06:57;;;;;;;27.50;13.20;;;;;;;9.40;32.20;93212.41;5013084;28;20041;-86
2022/03/10 11:09:24;;;;;;;28.70;13.30;;;;;;;9.36;31.97;93183.41;5012548;28;20519;-86
2022/03/10 11:11:51;;;;;;;31.20;14.38;;;;;;;9.93;31.29;93186.78;4996401;28;20030;-85
2022/03/10 11:14:20;;;;;;;29.02;14.48;;;;;;;9.79;30.73;93196.19;4968805;28;20490;-86
2022/03/10 11:16:46;;;;;;;28.33;14.45;;;;;;;10.34;31.08;93206.88;4987510;28;20037;-86
2022/03/10 11:19:13;;;;;;;25.33;13.98;;;;;;;9.96;31.44;93201.16;4998698;28;20494;-86
2022/03/10 11:22:17;;;;;;;27.95;13.35;;;;;;;10.28;30.96;93194.81;5012320;28;20028;-86
2022/03/10 11:25:03;;;;;;;24.90;12.38;;;;;;;10.39;30.26;93189.28;4974880;28;20045;-85
2022/03/10 11:27:52;;;;;;;32.88;13.52;;;;;;;10.15;30.77;93194.28;4998275;28;20190;-86
2022/03/10 11:30:23;;;;;;;29.35;13.88;;;;;;;10.99;29.68;93181.44;5011018;28;20053;-87
2022/03/10 11:33:12;;;;;;;29.60;14.55;;;;;;;11.22;29.93;93181.81;5014393;28;20033;-88
2022/03/10 11:35:48;;;;;;;31.13;15.73;;;;;;;11.38;28.95;93182.50;5032684;28;20087;-87
2022/03/10 11:38:15;;;;;;;30.95;13.88;;;;;;;10.81;29.96;93163.72;4993090;28;20073;-86
2022/03/10 11:41:06;;;;;;;;;;;;;;;;;;;;;
2022/03/10 11:43:38;;;;;;;30.30;14.65;;;;;;;9.83;31.58;93162.47;5011007;28;20034;-85
2022/03/10 11:46:28;;;;;;;28.92;14.48;;;;;;;11.13;29.88;93180.84;4992937;28;20072;-86
2022/03/10 11:49:04;;;;;;;29.65;15.30;;;;;;;11.34;29.97;93169.13;4997646;28;20491;-86
2022/03/10 11:51:51;;;;;;;31.17;14.45;;;;;;;11.52;29.40;93172.16;4983379;28;20084;-86
2022/03/10 11:54:22;;;;;;;32.47;14.68;;;;;;;11.01;29.83;93121.69;4996326;28;20033;-86
2022/03/10 11:56:56;;;;;;;32.78;14.75;;;;;;;11.47;29.45;93165.13;5013184;28;20534;-86
2022/03/10 11:59:36;;;;;;;25.98;13.80;;;;;;;11.30;29.07;93156.84;4997487;28;20500;-87
2022/03/10 12:02:38;;;;;;;27.50;13.30;;;;;;;10.99;29.14;93109.94;5012544;28;20045;-86
2022/03/10 12:05:06;;;;;;;31.85;13.38;;;;;;;10.48;29.73;93092.69;4982148;28;20061;-88
2022/03/10 12:07:35;;;;;;;30.17;13.43;;;;;;;11.12;29.24;93150.44;4997723;28;20354;-89
2022/03/10 12:10:14;;;;;;;31.40;14.75;;;;;;;10.81;29.18;93120.00;5009140;28;20133;-91
2022/03/10 12:13:37;;;;;;;28.25;14.38;;;;;;;11.09;29.11;93088.09;5001114;28;20076;-88
2022/03/10 12:16:32;;;;;;;;;;;;;;;;;;;;;
2022/03/10 12:19:05;;;;;;;29.33;15.00;;;;;;;10.50;29.92;93077.50;5016943;28;20042;-88
2022/03/10 12:21:45;;;;;;;33.47;14.40;;;;;;;11.10;29.17;93098.31;4999375;28;20069;-89
2022/03/10 12:24:33;;;;;;;18.90;10.50;;;;;;;10.23;29.56;93126.78;4982963;28;20069;-88
2022/03/10 12:27:38;;;;;;;;;;;;;;;;;;;;;
2022/03/10 12:30:44;;;;;;;30.75;14.18;;;;;;;10.87;29.37;93135.66;5016923;28;20041;-88
2022/03/10 12:33:12;;;;;;;30.02;13.98;;;;;;;10.63;29.50;93079.50;4998878;28;20499;-89
2022/03/10 12:36:02;;;;;;;29.33;14.25;;;;;;;11.26;28.78;93098.97;5000836;28;20497;-89
2022/03/10 12:38:50;;;;;;;33.30;15.57;;;;;;;10.80;29.49;93094.06;5016586;28;20065;-88
2022/03/10 12:42:12;;;;;;;;;;;;;;;;;;;;;
2022/03/10 12:44:56;;;;;;;30.30;13.27;;;;;;;10.87;29.63;93084.06;5016546;28;20042;-89
2022/03/10 12:47:28;;;;;;;29.17;14.38;;;;;;;10.85;28.80;93099.25;4999124;28;20038;-88
2022/03/10 12:50:23;;;;;;;29.63;14.18;;;;;;;11.20;28.86;93087.75;5002253;28;20029;-88
2022/03/10 12:53:18;;;;;;;;;;;;;;;;;;;;;
2022/03/10 12:56:14;;;;;;;28.48;14.27;;;;;;;11.42;29.59;93103.03;5035930;28;20554;-88
2022/03/10 12:58:58;;;;;;;;;;;;;;;;;;;;;
2022/03/10 13:01:44;;;;;;;;;;;;;;;;;;;;;
2022/03/10 13:04:15;;;;;;;26.63;13.20;;;;;;;10.65;29.15;93049.63;5035330;28;20057;-88
2022/03/10 13:07:02;;;;;;;23.42;12.77;;;;;;;10.93;29.90;93037.66;5017283;28;20034;-88
2022/03/10 13:10:05;;;;;;;;;;;;;;;;;;;;;
2022/03/10 13:12:52;;;;;;;;;;;;;;;;;;;;;
2022/03/10 13:15:24;;;;;;;27.00;12.13;;;;;;;11.44;27.34;93093.06;5017747;28;20037;-90
2022/03/10 13:18:12;;;;;;;27.75;14.07;;;;;;;11.10;27.81;93043.28;5017442;28;20379;-88
2022/03/10 13:20:55;;;;;;;29.60;14.20;;;;;;;10.89;28.72;93032.19;5019934;28;20049;-88
2022/03/10 13:23:44;;;;;;;26.75;13.38;;;;;;;11.27;28.00;93023.75;5018257;28;20025;-88
2022/03/10 13:26:39;;;;;;;;;;;;;;;;;;;;;
2022/03/10 13:29:34;;;;;;;21.27;11.77;;;;;;;11.56;27.39;93032.38;5035080;28;20063;-89
2022/03/10 13:32:30;;;;;;;24.02;12.82;;;;;;;10.97;28.55;93051.78;5001740;28;20095;-88
2022/03/10 13:35:18;;;;;;;29.67;14.43;;;;;;;11.23;28.92;93034.00;5018030;28;20038;-88
2022/03/10 13:38:08;;;;;;;27.20;14.02;;;;;;;11.51;28.00;93039.53;5017901;28;20044;-88
2022/03/10 13:41:00;;;;;;;28.88;14.82;;;;;;;11.22;29.08;93040.31;5017315;28;20095;-89
2022/03/10 13:43:48;;;;;;;32.45;14.43;;;;;;;11.49;28.06;93020.66;5035074;28;20368;-88
2022/03/10 13:47:07;;;;;;;29.92;14.93;;;;;;;11.22;28.23;93037.69;5005020;28;20045;-88
2022/03/10 13:50:09;;;;;;;22.10;11.60;;;;;;;11.16;27.65;93075.47;5035626;28;20053;-88
2022/03/10 13:53:00;;;;;;;27.45;12.85;;;;;;;11.67;27.06;93033.03;5017991;28;20048;-88
2022/03/10 13:55:33;;;;;;;25.05;13.13;;;;;;;11.46;27.69;93054.22;5000610;28;20124;-88
2022/03/10 13:58:13;;;;;;;28.75;14.13;;;;;;;11.05;27.71;93014.50;5002133;28;20029;-88
2022/03/10 14:01:24;;;;;;;25.65;13.55;;;;;;;10.90;28.33;93020.66;5001199;28;20045;-87
2022/03/10 14:04:35;;;;;;;24.33;9.88;;;;;;;11.40;28.23;93050.09;5031457;28;20652;-87
2022/03/10 14:07:16;;;;;;;29.92;13.13;;;;;;;11.45;26.67;93057.13;5013744;28;20136;-88
2022/03/10 14:10:26;;;;;;;27.13;13.10;;;;;;;11.85;27.57;93060.41;5034564;28;20045;-91
2022/03/10 14:13:35;;;;;;;;;;;;;;;;;;;;;
2022/03/10 14:16:43;;;;;;;23.95;12.60;;;;;;;10.96;27.81;93016.94;5016693;28;20117;-88
2022/03/10 14:19:36;;;;;;;31.17;14.45;;;;;;;10.99;28.01;93049.69;5004549;28;20045;-87
2022/03/10 14:22:19;;;;;;;24.50;12.25;;;;;;;11.20;28.42;93021.44;5000328;28;20116;-87
2022/03/10 14:24:59;;;;;;;23.25;11.50;;;;;;;10.61;28.82;92997.84;5000482;28;20073;-87
2022/03/10 14:27:37;;;;;;;28.33;12.77;;;;;;;10.77;28.62;93008.97;5015547;28;20042;-88
2022/03/10 14:30:08;;;;;;;32.70;14.70;;;;;;;10.88;28.88;93006.28;4999749;28;20471;-89
2022/03/10 14:32:52;;;;;;;28.00;12.77;;;;;;;11.19;29.16;93059.97;5033870;28;20051;-87
2022/03/10 14:35:37;;;;;;;;;;;;;;;;;;;;;
2022/03/10 14:38:16;;;;;;;28.90;13.52;;;;;;;10.50;29.76;92996.34;5015674;28;20045;-87
2022/03/10 14:41:04;;;;;;;24.13;12.07;;;;;;;10.86;30.16;93045.06;5033587;28;20501;-87
2022/03/10 14:43:38;;;;;;;26.98;13.30;;;;;;;10.81;31.02;93065.00;4999988;28;20041;-87
2022/03/10 14:46:16;;;;;;;29.27;14.05;;;;;;;11.15;29.31;93016.28;4984275;28;20044;-86
2022/03/10 14:48:52;;;;;;;31.17;15.27;;;;;;;10.67;29.63;93000.41;4984786;28;20065;-87
2022/03/10 14:51:38;;;;;;;30.98;13.25;;;;;;;10.54;30.45;93039.25;5026272;28;20053;-87
2022/03/10 14:54:24;;;;;;;33.17;15.05;;;;;;;10.77;30.61;93021.28;4999852;28;20037;-87
2022/03/10 14:56:58;;;;;;;29.67;15.02;;;;;;;10.93;30.39;93038.44;5014120;28;20038;-86
2022/03/10 14:59:24;;;;;;;31.83;15.93;;;;;;;11.13;30.47;93050.59;5032159;28;20084;-84
2022/03/10 15:01:49;;;;;;;30.95;15.18;;;;;;;10.59;30.96;93007.78;5013755;28;20494;-86
2022/03/10 15:04:19;;;;;;;31.63;15.48;;;;;;;10.58;31.23;93045.50;4983160;28;20057;-85
2022/03/10 15:06:45;;;;;;;25.02;13.90;;;;;;;10.68;31.00;93022.94;5004460;28;20065;-85
2022/03/10 15:09:11;;;;;;;40.33;14.45;;;;;;;10.50;31.20;92988.50;4994358;28;20057;-86
2022/03/10 15:11:37;;;;;;;31.30;15.27;;;;;;;10.72;30.85;93016.88;4994583;28;20072;-86